sensor_id;sensor_type;location;lat;lon;timestamp;P1;durP1;ratioP1;P2;durP2;ratioP2
4407;SDS011;2217;48.460;7.934;2022-08-03T00:00:57;3.20;;;0.90;;
4407;SDS011;2217;48.460;7.934;2022-08-03T00:03:26;3.20;;;0.80;;
4407;SDS011;2217;48.460;7.934;2022-08-03T00:05:55;3.20;;;0.90;;
4407;SDS011;2217;48.460;7.934;2022-08-03T00:08:23;3.13;;;0.80;;
4407;SDS011;2217;48.460;7.934;2022-08-03T00:16:36;3.20;;;0.90;;
4407;SDS011;2217;48.460;7.934;2022-08-03T00:19:11;3.20;;;0.80;;
4407;SDS011;2217;48.460;7.934;2022-08-03T00:21:39;3.10;;;0.80;;
4407;SDS011;2217;48.460;7.934;2022-08-03T00:24:07;3.17;;;0.90;;
4407;SDS011;2217;48.460;7.934;2022-08-03T00:26:34;3.13;;;0.80;;
4407;SDS011;2217;48.460;7.934;2022-08-03T00:29:04;3.13;;;0.83;;
4407;SDS011;2217;48.460;7.934;2022-08-03T00:31:54;3.17;;;0.90;;
4407;SDS011;2217;48.460;7.934;2022-08-03T00:34:29;3.10;;;0.80;;
4407;SDS011;2217;48.460;7.934;2022-08-03T02:52:56;2.90;;;0.90;;
4407;SDS011;2217;48.460;7.934;2022-08-03T02:55:24;2.90;;;0.90;;
4407;SDS011;2217;48.460;7.934;2022-08-03T02:57:52;2.90;;;0.90;;
4407;SDS011;2217;48.460;7.934;2022-08-03T03:00:20;2.83;;;0.80;;
4407;SDS011;2217;48.460;7.934;2022-08-03T03:02:48;2.90;;;0.80;;
4407;SDS011;2217;48.460;7.934;2022-08-03T03:05:16;2.90;;;0.90;;
4407;SDS011;2217;48.460;7.934;2022-08-03T03:07:43;2.90;;;0.90;;
4407;SDS011;2217;48.460;7.934;2022-08-03T03:10:12;2.90;;;0.80;;
4407;SDS011;2217;48.460;7.934;2022-08-03T03:12:39;2.87;;;0.90;;
4407;SDS011;2217;48.460;7.934;2022-08-03T03:15:07;2.83;;;0.90;;
4407;SDS011;2217;48.460;7.934;2022-08-03T03:17:34;2.83;;;0.90;;
4407;SDS011;2217;48.460;7.934;2022-08-03T03:20:03;2.90;;;0.90;;
4407;SDS011;2217;48.460;7.934;2022-08-03T03:22:31;2.90;;;0.90;;
4407;SDS011;2217;48.460;7.934;2022-08-03T03:24:59;2.87;;;0.90;;
4407;SDS011;2217;48.460;7.934;2022-08-03T03:27:28;2.87;;;0.80;;
4407;SDS011;2217;48.460;7.934;2022-08-03T03:29:56;2.83;;;0.90;;
4407;SDS011;2217;48.460;7.934;2022-08-03T03:32:25;2.87;;;0.90;;
4407;SDS011;2217;48.460;7.934;2022-08-03T03:34:52;2.87;;;0.90;;
4407;SDS011;2217;48.460;7.934;2022-08-03T03:37:20;2.83;;;0.80;;
4407;SDS011;2217;48.460;7.934;2022-08-03T03:39:47;2.87;;;0.87;;
4407;SDS011;2217;48.460;7.934;2022-08-03T03:42:14;2.83;;;0.80;;
4407;SDS011;2217;48.460;7.934;2022-08-03T03:44:43;2.83;;;0.80;;
4407;SDS011;2217;48.460;7.934;2022-08-03T03:47:10;2.87;;;0.80;;
4407;SDS011;2217;48.460;7.934;2022-08-03T03:49:37;2.83;;;0.83;;
4407;SDS011;2217;48.460;7.934;2022-08-03T03:52:05;2.83;;;0.90;;
4407;SDS011;2217;48.460;7.934;2022-08-03T03:54:38;2.83;;;0.87;;
4407;SDS011;2217;48.460;7.934;2022-08-03T03:57:06;2.87;;;0.80;;
4407;SDS011;2217;48.460;7.934;2022-08-03T03:59:36;2.80;;;0.80;;
4407;SDS011;2217;48.460;7.934;2022-08-03T04:02:05;2.80;;;0.90;;
4407;SDS011;2217;48.460;7.934;2022-08-03T04:04:32;2.80;;;0.80;;
4407;SDS011;2217;48.460;7.934;2022-08-03T04:07:18;2.80;;;0.90;;
4407;SDS011;2217;48.460;7.934;2022-08-03T04:10:04;2.80;;;0.90;;
4407;SDS011;2217;48.460;7.934;2022-08-03T04:12:51;2.80;;;0.80;;
4407;SDS011;2217;48.460;7.934;2022-08-03T04:15:19;2.77;;;0.80;;
4407;SDS011;2217;48.460;7.934;2022-08-03T04:20:54;2.80;;;0.90;;
4407;SDS011;2217;48.460;7.934;2022-08-03T04:23:23;2.80;;;0.80;;
4407;SDS011;2217;48.460;7.934;2022-08-03T04:25:51;2.80;;;0.90;;
4407;SDS011;2217;48.460;7.934;2022-08-03T04:28:19;2.80;;;0.90;;
4407;SDS011;2217;48.460;7.934;2022-08-03T04:30:47;2.80;;;0.80;;
4407;SDS011;2217;48.460;7.934;2022-08-03T04:33:16;2.73;;;0.80;;
4407;SDS011;2217;48.460;7.934;2022-08-03T04:35:45;2.77;;;0.90;;
4407;SDS011;2217;48.460;7.934;2022-08-03T04:38:14;2.70;;;0.80;;
4407;SDS011;2217;48.460;7.934;2022-08-03T04:40:44;2.70;;;0.80;;
4407;SDS011;2217;48.460;7.934;2022-08-03T04:43:12;2.70;;;0.90;;
4407;SDS011;2217;48.460;7.934;2022-08-03T04:45:40;2.70;;;0.83;;
4407;SDS011;2217;48.460;7.934;2022-08-03T04:48:08;2.70;;;0.80;;
4407;SDS011;2217;48.460;7.934;2022-08-03T04:50:36;2.70;;;0.90;;
4407;SDS011;2217;48.460;7.934;2022-08-03T04:53:04;2.70;;;0.90;;
4407;SDS011;2217;48.460;7.934;2022-08-03T04:55:33;2.70;;;0.80;;
4407;SDS011;2217;48.460;7.934;2022-08-03T04:58:01;2.70;;;0.90;;
4407;SDS011;2217;48.460;7.934;2022-08-03T05:00:28;2.67;;;0.80;;
4407;SDS011;2217;48.460;7.934;2022-08-03T05:02:56;2.70;;;0.80;;
4407;SDS011;2217;48.460;7.934;2022-08-03T05:05:23;2.70;;;0.90;;
4407;SDS011;2217;48.460;7.934;2022-08-03T05:07:50;2.70;;;0.90;;
4407;SDS011;2217;48.460;7.934;2022-08-03T05:10:17;2.70;;;0.90;;
4407;SDS011;2217;48.460;7.934;2022-08-03T05:12:46;2.70;;;0.80;;
4407;SDS011;2217;48.460;7.934;2022-08-03T05:15:15;2.70;;;0.87;;
4407;SDS011;2217;48.460;7.934;2022-08-03T05:17:42;2.70;;;0.80;;
4407;SDS011;2217;48.460;7.934;2022-08-03T05:20:10;2.67;;;0.90;;
4407;SDS011;2217;48.460;7.934;2022-08-03T05:22:37;2.67;;;0.83;;
4407;SDS011;2217;48.460;7.934;2022-08-03T05:25:04;2.70;;;0.80;;
4407;SDS011;2217;48.460;7.934;2022-08-03T05:27:32;2.70;;;0.83;;
4407;SDS011;2217;48.460;7.934;2022-08-03T05:30:00;2.67;;;0.80;;
4407;SDS011;2217;48.460;7.934;2022-08-03T05:32:27;2.70;;;0.80;;
4407;SDS011;2217;48.460;7.934;2022-08-03T05:34:55;2.70;;;0.90;;
4407;SDS011;2217;48.460;7.934;2022-08-03T05:37:42;2.67;;;0.80;;
4407;SDS011;2217;48.460;7.934;2022-08-03T05:40:10;2.70;;;0.80;;
4407;SDS011;2217;48.460;7.934;2022-08-03T05:43:23;2.70;;;0.80;;
4407;SDS011;2217;48.460;7.934;2022-08-03T05:45:39;2.70;;;0.90;;
4407;SDS011;2217;48.460;7.934;2022-08-03T05:48:07;2.70;;;0.90;;
4407;SDS011;2217;48.460;7.934;2022-08-03T05:50:34;2.67;;;0.80;;
4407;SDS011;2217;48.460;7.934;2022-08-03T05:53:01;2.70;;;0.90;;
4407;SDS011;2217;48.460;7.934;2022-08-03T05:55:28;2.70;;;0.80;;
4407;SDS011;2217;48.460;7.934;2022-08-03T05:57:55;2.70;;;0.90;;
4407;SDS011;2217;48.460;7.934;2022-08-03T06:00:23;2.70;;;0.80;;
4407;SDS011;2217;48.460;7.934;2022-08-03T06:02:51;2.67;;;0.80;;
4407;SDS011;2217;48.460;7.934;2022-08-03T06:05:18;2.70;;;0.80;;
4407;SDS011;2217;48.460;7.934;2022-08-03T06:07:46;2.70;;;0.90;;
4407;SDS011;2217;48.460;7.934;2022-08-03T06:10:13;2.70;;;0.80;;
4407;SDS011;2217;48.460;7.934;2022-08-03T06:12:40;2.70;;;0.80;;
4407;SDS011;2217;48.460;7.934;2022-08-03T06:15:08;2.70;;;0.90;;
4407;SDS011;2217;48.460;7.934;2022-08-03T06:17:43;2.70;;;0.80;;
4407;SDS011;2217;48.460;7.934;2022-08-03T06:20:12;2.70;;;0.90;;
4407;SDS011;2217;48.460;7.934;2022-08-03T06:22:39;2.70;;;0.80;;
4407;SDS011;2217;48.460;7.934;2022-08-03T06:25:07;2.70;;;0.80;;
4407;SDS011;2217;48.460;7.934;2022-08-03T06:27:34;2.70;;;0.90;;
4407;SDS011;2217;48.460;7.934;2022-08-03T06:30:04;2.77;;;0.80;;
4407;SDS011;2217;48.460;7.934;2022-08-03T06:32:32;2.80;;;0.80;;
4407;SDS011;2217;48.460;7.934;2022-08-03T06:34:59;2.80;;;0.80;;
4407;SDS011;2217;48.460;7.934;2022-08-03T06:37:27;2.80;;;0.80;;
4407;SDS011;2217;48.460;7.934;2022-08-03T06:39:55;2.80;;;0.90;;
4407;SDS011;2217;48.460;7.934;2022-08-03T06:42:22;2.80;;;0.90;;
4407;SDS011;2217;48.460;7.934;2022-08-03T06:44:49;2.80;;;0.80;;
4407;SDS011;2217;48.460;7.934;2022-08-03T06:47:17;2.87;;;0.80;;
4407;SDS011;2217;48.460;7.934;2022-08-03T06:49:44;2.83;;;0.80;;
4407;SDS011;2217;48.460;7.934;2022-08-03T06:52:11;2.83;;;0.80;;
4407;SDS011;2217;48.460;7.934;2022-08-03T06:54:40;2.90;;;1.00;;
4407;SDS011;2217;48.460;7.934;2022-08-03T06:57:07;2.90;;;0.80;;
4407;SDS011;2217;48.460;7.934;2022-08-03T06:59:35;2.90;;;0.80;;
4407;SDS011;2217;48.460;7.934;2022-08-03T07:02:03;2.90;;;0.80;;
4407;SDS011;2217;48.460;7.934;2022-08-03T07:04:30;2.90;;;0.80;;
4407;SDS011;2217;48.460;7.934;2022-08-03T07:06:58;2.90;;;0.80;;
4407;SDS011;2217;48.460;7.934;2022-08-03T07:09:25;2.93;;;0.80;;
4407;SDS011;2217;48.460;7.934;2022-08-03T07:11:54;2.97;;;0.80;;
4407;SDS011;2217;48.460;7.934;2022-08-03T07:14:22;3.00;;;0.80;;
4407;SDS011;2217;48.460;7.934;2022-08-03T07:16:50;3.00;;;0.80;;
4407;SDS011;2217;48.460;7.934;2022-08-03T07:19:17;3.00;;;0.80;;
4407;SDS011;2217;48.460;7.934;2022-08-03T07:21:44;3.03;;;0.80;;
4407;SDS011;2217;48.460;7.934;2022-08-03T07:24:11;3.07;;;0.80;;
4407;SDS011;2217;48.460;7.934;2022-08-03T07:26:39;3.03;;;0.80;;
4407;SDS011;2217;48.460;7.934;2022-08-03T07:29:07;3.10;;;0.80;;
4407;SDS011;2217;48.460;7.934;2022-08-03T07:31:40;3.10;;;0.90;;
4407;SDS011;2217;48.460;7.934;2022-08-03T07:34:08;3.10;;;0.80;;
4407;SDS011;2217;48.460;7.934;2022-08-03T07:36:35;3.17;;;0.80;;
4407;SDS011;2217;48.460;7.934;2022-08-03T07:39:02;3.17;;;0.80;;
4407;SDS011;2217;48.460;7.934;2022-08-03T07:41:30;3.17;;;0.80;;
4407;SDS011;2217;48.460;7.934;2022-08-03T07:43:57;3.20;;;0.80;;
4407;SDS011;2217;48.460;7.934;2022-08-03T07:46:26;3.20;;;0.80;;
4407;SDS011;2217;48.460;7.934;2022-08-03T07:48:53;3.20;;;0.80;;
4407;SDS011;2217;48.460;7.934;2022-08-03T07:51:20;3.20;;;0.80;;
4407;SDS011;2217;48.460;7.934;2022-08-03T07:53:48;3.27;;;0.80;;
4407;SDS011;2217;48.460;7.934;2022-08-03T07:56:15;3.20;;;0.80;;
4407;SDS011;2217;48.460;7.934;2022-08-03T07:58:45;3.30;;;0.80;;
4407;SDS011;2217;48.460;7.934;2022-08-03T08:01:12;3.30;;;0.80;;
4407;SDS011;2217;48.460;7.934;2022-08-03T08:03:42;3.30;;;0.80;;
4407;SDS011;2217;48.460;7.934;2022-08-03T08:06:10;3.30;;;0.80;;
4407;SDS011;2217;48.460;7.934;2022-08-03T08:08:37;3.30;;;0.73;;
4407;SDS011;2217;48.460;7.934;2022-08-03T08:11:04;3.38;;;0.75;;
4407;SDS011;2217;48.460;7.934;2022-08-03T08:13:32;3.40;;;0.80;;
4407;SDS011;2217;48.460;7.934;2022-08-03T08:16:02;3.40;;;0.77;;
4407;SDS011;2217;48.460;7.934;2022-08-03T08:18:30;3.45;;;0.73;;
4407;SDS011;2217;48.460;7.934;2022-08-03T08:21:01;3.53;;;0.75;;
4407;SDS011;2217;48.460;7.934;2022-08-03T08:23:28;3.60;;;0.80;;
4407;SDS011;2217;48.460;7.934;2022-08-03T08:25:55;3.60;;;0.70;;
4407;SDS011;2217;48.460;7.934;2022-08-03T08:28:22;3.67;;;0.80;;
4407;SDS011;2217;48.460;7.934;2022-08-03T08:30:49;3.70;;;0.80;;
4407;SDS011;2217;48.460;7.934;2022-08-03T08:33:17;3.70;;;0.70;;
4407;SDS011;2217;48.460;7.934;2022-08-03T08:35:44;3.70;;;0.80;;
4407;SDS011;2217;48.460;7.934;2022-08-03T08:38:12;3.70;;;0.80;;
4407;SDS011;2217;48.460;7.934;2022-08-03T08:40:40;3.67;;;0.70;;
4407;SDS011;2217;48.460;7.934;2022-08-03T08:43:07;3.72;;;0.80;;
4407;SDS011;2217;48.460;7.934;2022-08-03T08:45:34;3.70;;;0.80;;
4407;SDS011;2217;48.460;7.934;2022-08-03T08:48:01;3.70;;;0.80;;
4407;SDS011;2217;48.460;7.934;2022-08-03T08:50:29;3.72;;;0.80;;
4407;SDS011;2217;48.460;7.934;2022-08-03T08:52:57;3.75;;;0.80;;
4407;SDS011;2217;48.460;7.934;2022-08-03T08:55:27;3.72;;;0.80;;
4407;SDS011;2217;48.460;7.934;2022-08-03T08:57:55;3.80;;;0.75;;
4407;SDS011;2217;48.460;7.934;2022-08-03T09:00:24;3.75;;;0.80;;
4407;SDS011;2217;48.460;7.934;2022-08-03T09:02:51;3.75;;;0.73;;
4407;SDS011;2217;48.460;7.934;2022-08-03T09:05:18;3.80;;;0.70;;
4407;SDS011;2217;48.460;7.934;2022-08-03T09:07:46;3.78;;;0.75;;
4407;SDS011;2217;48.460;7.934;2022-08-03T09:10:14;3.88;;;0.70;;
4407;SDS011;2217;48.460;7.934;2022-08-03T09:12:46;3.83;;;0.70;;
4407;SDS011;2217;48.460;7.934;2022-08-03T09:15:20;3.90;;;0.77;;
4407;SDS011;2217;48.460;7.934;2022-08-03T09:17:47;3.90;;;0.70;;
4407;SDS011;2217;48.460;7.934;2022-08-03T09:20:15;3.92;;;0.70;;
4407;SDS011;2217;48.460;7.934;2022-08-03T09:22:55;3.95;;;0.70;;
4407;SDS011;2217;48.460;7.934;2022-08-03T09:25:29;3.97;;;0.70;;
4407;SDS011;2217;48.460;7.934;2022-08-03T09:28:05;4.00;;;0.70;;
4407;SDS011;2217;48.460;7.934;2022-08-03T09:30:32;4.10;;;0.70;;
4407;SDS011;2217;48.460;7.934;2022-08-03T09:33:00;4.18;;;0.80;;
4407;SDS011;2217;48.460;7.934;2022-08-03T09:35:27;4.18;;;0.75;;
4407;SDS011;2217;48.460;7.934;2022-08-03T09:38:07;4.15;;;0.70;;
4407;SDS011;2217;48.460;7.934;2022-08-03T09:40:34;4.15;;;0.70;;
4407;SDS011;2217;48.460;7.934;2022-08-03T09:43:02;4.25;;;0.70;;
4407;SDS011;2217;48.460;7.934;2022-08-03T09:45:33;4.22;;;0.70;;
4407;SDS011;2217;48.460;7.934;2022-08-03T09:48:20;4.20;;;0.70;;
4407;SDS011;2217;48.460;7.934;2022-08-03T09:50:47;4.30;;;0.70;;
4407;SDS011;2217;48.460;7.934;2022-08-03T09:53:16;4.30;;;0.70;;
4407;SDS011;2217;48.460;7.934;2022-08-03T09:55:53;4.38;;;0.70;;
4407;SDS011;2217;48.460;7.934;2022-08-03T09:58:20;4.43;;;0.70;;
4407;SDS011;2217;48.460;7.934;2022-08-03T10:00:54;4.80;;;0.70;;
4407;SDS011;2217;48.460;7.934;2022-08-03T10:03:21;4.88;;;0.70;;
4407;SDS011;2217;48.460;7.934;2022-08-03T10:05:48;4.88;;;0.70;;
4407;SDS011;2217;48.460;7.934;2022-08-03T10:08:16;4.97;;;0.70;;
4407;SDS011;2217;48.460;7.934;2022-08-03T10:10:45;5.03;;;0.70;;
4407;SDS011;2217;48.460;7.934;2022-08-03T10:13:12;5.07;;;0.70;;
4407;SDS011;2217;48.460;7.934;2022-08-03T10:15:40;5.03;;;0.70;;
4407;SDS011;2217;48.460;7.934;2022-08-03T10:18:09;5.07;;;0.70;;
4407;SDS011;2217;48.460;7.934;2022-08-03T10:20:37;5.15;;;0.70;;
4407;SDS011;2217;48.460;7.934;2022-08-03T10:23:06;5.13;;;0.70;;
4407;SDS011;2217;48.460;7.934;2022-08-03T10:25:34;5.25;;;0.70;;
4407;SDS011;2217;48.460;7.934;2022-08-03T10:28:02;5.22;;;0.70;;
4407;SDS011;2217;48.460;7.934;2022-08-03T10:30:30;5.22;;;0.70;;
4407;SDS011;2217;48.460;7.934;2022-08-03T10:32:59;5.22;;;0.70;;
4407;SDS011;2217;48.460;7.934;2022-08-03T10:35:29;5.28;;;0.70;;
4407;SDS011;2217;48.460;7.934;2022-08-03T10:37:57;5.32;;;0.70;;
4407;SDS011;2217;48.460;7.934;2022-08-03T10:40:25;5.32;;;0.70;;
4407;SDS011;2217;48.460;7.934;2022-08-03T10:42:53;5.32;;;0.70;;
4407;SDS011;2217;48.460;7.934;2022-08-03T10:45:22;5.35;;;0.80;;
4407;SDS011;2217;48.460;7.934;2022-08-03T10:47:50;5.32;;;0.70;;
4407;SDS011;2217;48.460;7.934;2022-08-03T10:50:17;5.28;;;0.70;;
4407;SDS011;2217;48.460;7.934;2022-08-03T10:52:56;5.28;;;0.70;;
4407;SDS011;2217;48.460;7.934;2022-08-03T10:55:30;5.28;;;0.70;;
4407;SDS011;2217;48.460;7.934;2022-08-03T11:00:57;5.25;;;0.70;;
4407;SDS011;2217;48.460;7.934;2022-08-03T11:03:24;5.22;;;0.70;;
4407;SDS011;2217;48.460;7.934;2022-08-03T11:05:51;5.28;;;0.70;;
4407;SDS011;2217;48.460;7.934;2022-08-03T11:08:30;5.25;;;0.70;;
4407;SDS011;2217;48.460;7.934;2022-08-03T11:10:59;5.20;;;0.70;;
4407;SDS011;2217;48.460;7.934;2022-08-03T11:13:27;5.22;;;0.70;;
4407;SDS011;2217;48.460;7.934;2022-08-03T11:15:56;5.22;;;0.70;;
4407;SDS011;2217;48.460;7.934;2022-08-03T11:18:24;5.20;;;0.70;;
4407;SDS011;2217;48.460;7.934;2022-08-03T11:20:52;5.25;;;0.70;;
4407;SDS011;2217;48.460;7.934;2022-08-03T11:23:58;5.30;;;0.70;;
4407;SDS011;2217;48.460;7.934;2022-08-03T11:26:10;5.22;;;0.70;;
4407;SDS011;2217;48.460;7.934;2022-08-03T11:28:37;5.22;;;0.70;;
4407;SDS011;2217;48.460;7.934;2022-08-03T11:34:01;5.28;;;0.70;;
4407;SDS011;2217;48.460;7.934;2022-08-03T11:36:29;5.28;;;0.70;;
4407;SDS011;2217;48.460;7.934;2022-08-03T11:41:40;5.35;;;0.70;;
4407;SDS011;2217;48.460;7.934;2022-08-03T11:44:07;5.35;;;0.70;;
4407;SDS011;2217;48.460;7.934;2022-08-03T11:46:36;5.32;;;0.70;;
4407;SDS011;2217;48.460;7.934;2022-08-03T11:49:04;5.38;;;0.70;;
4407;SDS011;2217;48.460;7.934;2022-08-03T11:51:32;5.38;;;0.70;;
4407;SDS011;2217;48.460;7.934;2022-08-03T11:53:59;5.35;;;0.70;;
4407;SDS011;2217;48.460;7.934;2022-08-03T11:56:27;5.35;;;0.70;;
4407;SDS011;2217;48.460;7.934;2022-08-03T11:58:56;5.50;;;0.70;;
4407;SDS011;2217;48.460;7.934;2022-08-03T12:01:24;5.50;;;0.70;;
4407;SDS011;2217;48.460;7.934;2022-08-03T12:03:51;5.50;;;0.70;;
4407;SDS011;2217;48.460;7.934;2022-08-03T12:06:18;5.53;;;0.70;;
4407;SDS011;2217;48.460;7.934;2022-08-03T12:08:46;5.55;;;0.70;;
4407;SDS011;2217;48.460;7.934;2022-08-03T12:11:13;5.60;;;0.70;;
4407;SDS011;2217;48.460;7.934;2022-08-03T12:13:41;5.53;;;0.70;;
4407;SDS011;2217;48.460;7.934;2022-08-03T12:16:11;5.55;;;0.70;;
4407;SDS011;2217;48.460;7.934;2022-08-03T12:18:43;5.53;;;0.70;;
4407;SDS011;2217;48.460;7.934;2022-08-03T12:21:10;5.53;;;0.70;;
4407;SDS011;2217;48.460;7.934;2022-08-03T12:23:38;5.53;;;0.70;;
4407;SDS011;2217;48.460;7.934;2022-08-03T12:26:06;5.55;;;0.70;;
4407;SDS011;2217;48.460;7.934;2022-08-03T12:28:34;5.55;;;0.70;;
4407;SDS011;2217;48.460;7.934;2022-08-03T12:31:02;5.47;;;0.70;;
4407;SDS011;2217;48.460;7.934;2022-08-03T12:33:31;5.55;;;0.70;;
4407;SDS011;2217;48.460;7.934;2022-08-03T12:36:06;5.45;;;0.70;;
4407;SDS011;2217;48.460;7.934;2022-08-03T12:38:34;5.50;;;0.70;;
4407;SDS011;2217;48.460;7.934;2022-08-03T12:41:03;5.45;;;0.70;;
4407;SDS011;2217;48.460;7.934;2022-08-03T12:43:30;5.40;;;0.70;;
4407;SDS011;2217;48.460;7.934;2022-08-03T12:46:11;5.40;;;0.70;;
4407;SDS011;2217;48.460;7.934;2022-08-03T12:51:26;5.38;;;0.70;;
4407;SDS011;2217;48.460;7.934;2022-08-03T12:53:53;5.35;;;0.70;;
4407;SDS011;2217;48.460;7.934;2022-08-03T12:56:21;5.35;;;0.70;;
4407;SDS011;2217;48.460;7.934;2022-08-03T12:58:48;5.30;;;0.70;;
4407;SDS011;2217;48.460;7.934;2022-08-03T13:01:15;5.25;;;0.70;;
4407;SDS011;2217;48.460;7.934;2022-08-03T13:03:43;5.28;;;0.70;;
4407;SDS011;2217;48.460;7.934;2022-08-03T13:06:11;5.25;;;0.70;;
4407;SDS011;2217;48.460;7.934;2022-08-03T13:08:40;5.15;;;0.70;;
4407;SDS011;2217;48.460;7.934;2022-08-03T13:11:17;5.28;;;0.70;;
4407;SDS011;2217;48.460;7.934;2022-08-03T13:13:45;5.30;;;0.70;;
4407;SDS011;2217;48.460;7.934;2022-08-03T13:16:12;5.22;;;0.70;;
4407;SDS011;2217;48.460;7.934;2022-08-03T13:18:39;5.28;;;0.70;;
4407;SDS011;2217;48.460;7.934;2022-08-03T13:21:06;5.28;;;0.70;;
4407;SDS011;2217;48.460;7.934;2022-08-03T13:23:33;5.30;;;0.70;;
4407;SDS011;2217;48.460;7.934;2022-08-03T13:26:02;5.30;;;0.70;;
4407;SDS011;2217;48.460;7.934;2022-08-03T13:28:30;5.30;;;0.70;;
4407;SDS011;2217;48.460;7.934;2022-08-03T13:30:57;5.30;;;0.70;;
4407;SDS011;2217;48.460;7.934;2022-08-03T13:33:25;5.30;;;0.70;;
4407;SDS011;2217;48.460;7.934;2022-08-03T13:35:52;5.28;;;0.70;;
4407;SDS011;2217;48.460;7.934;2022-08-03T13:38:19;5.28;;;0.70;;
4407;SDS011;2217;48.460;7.934;2022-08-03T13:40:47;5.30;;;0.70;;
4407;SDS011;2217;48.460;7.934;2022-08-03T13:43:15;5.35;;;0.70;;
4407;SDS011;2217;48.460;7.934;2022-08-03T13:45:42;5.38;;;0.70;;
4407;SDS011;2217;48.460;7.934;2022-08-03T13:48:10;5.25;;;0.70;;
4407;SDS011;2217;48.460;7.934;2022-08-03T13:50:37;5.30;;;0.70;;
4407;SDS011;2217;48.460;7.934;2022-08-03T13:53:04;5.35;;;0.70;;
4407;SDS011;2217;48.460;7.934;2022-08-03T13:55:31;5.32;;;0.70;;
4407;SDS011;2217;48.460;7.934;2022-08-03T13:57:58;5.35;;;0.70;;
4407;SDS011;2217;48.460;7.934;2022-08-03T14:00:27;5.38;;;0.70;;
4407;SDS011;2217;48.460;7.934;2022-08-03T14:02:57;5.35;;;0.70;;
4407;SDS011;2217;48.460;7.934;2022-08-03T14:05:24;5.38;;;0.70;;
4407;SDS011;2217;48.460;7.934;2022-08-03T14:07:52;5.35;;;0.70;;
4407;SDS011;2217;48.460;7.934;2022-08-03T14:10:19;5.40;;;0.70;;
4407;SDS011;2217;48.460;7.934;2022-08-03T14:12:46;5.40;;;0.70;;
4407;SDS011;2217;48.460;7.934;2022-08-03T14:15:13;5.38;;;0.70;;
4407;SDS011;2217;48.460;7.934;2022-08-03T14:17:42;5.38;;;0.70;;
4407;SDS011;2217;48.460;7.934;2022-08-03T14:20:09;5.35;;;0.70;;
4407;SDS011;2217;48.460;7.934;2022-08-03T14:22:38;5.40;;;0.70;;
4407;SDS011;2217;48.460;7.934;2022-08-03T14:25:06;5.38;;;0.70;;
4407;SDS011;2217;48.460;7.934;2022-08-03T14:27:33;5.47;;;0.70;;
4407;SDS011;2217;48.460;7.934;2022-08-03T14:30:01;5.50;;;0.70;;
4407;SDS011;2217;48.460;7.934;2022-08-03T14:32:28;5.50;;;0.70;;
4407;SDS011;2217;48.460;7.934;2022-08-03T14:34:57;5.53;;;0.70;;
4407;SDS011;2217;48.460;7.934;2022-08-03T14:37:24;5.55;;;0.77;;
4407;SDS011;2217;48.460;7.934;2022-08-03T14:39:51;5.57;;;0.70;;
4407;SDS011;2217;48.460;7.934;2022-08-03T14:42:18;5.53;;;0.70;;
4407;SDS011;2217;48.460;7.934;2022-08-03T14:44:46;5.50;;;0.70;;
4407;SDS011;2217;48.460;7.934;2022-08-03T14:47:13;5.63;;;0.80;;
4407;SDS011;2217;48.460;7.934;2022-08-03T14:49:42;5.57;;;0.70;;
4407;SDS011;2217;48.460;7.934;2022-08-03T14:52:11;5.60;;;0.70;;
4407;SDS011;2217;48.460;7.934;2022-08-03T14:54:38;5.68;;;0.70;;
4407;SDS011;2217;48.460;7.934;2022-08-03T14:57:05;5.70;;;0.80;;
4407;SDS011;2217;48.460;7.934;2022-08-03T14:59:32;5.72;;;0.70;;
4407;SDS011;2217;48.460;7.934;2022-08-03T15:01:59;5.75;;;0.80;;
4407;SDS011;2217;48.460;7.934;2022-08-03T15:04:26;5.75;;;0.70;;
4407;SDS011;2217;48.460;7.934;2022-08-03T15:06:54;5.75;;;0.70;;
4407;SDS011;2217;48.460;7.934;2022-08-03T15:09:22;5.78;;;0.80;;
4407;SDS011;2217;48.460;7.934;2022-08-03T15:11:49;5.80;;;0.80;;
4407;SDS011;2217;48.460;7.934;2022-08-03T15:14:16;5.80;;;0.70;;
4407;SDS011;2217;48.460;7.934;2022-08-03T15:16:44;5.82;;;0.70;;
4407;SDS011;2217;48.460;7.934;2022-08-03T15:19:11;5.88;;;0.80;;
4407;SDS011;2217;48.460;7.934;2022-08-03T15:21:38;5.82;;;0.80;;
4407;SDS011;2217;48.460;7.934;2022-08-03T15:24:05;5.88;;;0.80;;
4407;SDS011;2217;48.460;7.934;2022-08-03T15:26:34;5.85;;;0.70;;
4407;SDS011;2217;48.460;7.934;2022-08-03T15:29:02;5.80;;;0.80;;
4407;SDS011;2217;48.460;7.934;2022-08-03T15:31:29;5.82;;;0.70;;
4407;SDS011;2217;48.460;7.934;2022-08-03T15:33:56;5.85;;;0.80;;
4407;SDS011;2217;48.460;7.934;2022-08-03T15:36:23;5.85;;;0.77;;
4407;SDS011;2217;48.460;7.934;2022-08-03T15:38:51;5.88;;;0.75;;
4407;SDS011;2217;48.460;7.934;2022-08-03T15:41:18;5.82;;;0.80;;
4407;SDS011;2217;48.460;7.934;2022-08-03T15:43:46;5.85;;;0.80;;
4407;SDS011;2217;48.460;7.934;2022-08-03T15:46:16;5.80;;;0.70;;
4407;SDS011;2217;48.460;7.934;2022-08-03T15:48:43;5.82;;;0.77;;
4407;SDS011;2217;48.460;7.934;2022-08-03T15:51:11;5.80;;;0.80;;
4407;SDS011;2217;48.460;7.934;2022-08-03T15:53:38;5.85;;;0.73;;
4407;SDS011;2217;48.460;7.934;2022-08-03T15:56:05;5.88;;;0.70;;
4407;SDS011;2217;48.460;7.934;2022-08-03T15:58:34;5.88;;;0.80;;
4407;SDS011;2217;48.460;7.934;2022-08-03T16:01:03;5.88;;;0.77;;
4407;SDS011;2217;48.460;7.934;2022-08-03T16:03:30;5.85;;;0.70;;
4407;SDS011;2217;48.460;7.934;2022-08-03T16:05:59;5.85;;;0.80;;
4407;SDS011;2217;48.460;7.934;2022-08-03T16:08:27;5.80;;;0.80;;
4407;SDS011;2217;48.460;7.934;2022-08-03T16:10:54;5.85;;;0.80;;
4407;SDS011;2217;48.460;7.934;2022-08-03T16:13:21;5.82;;;0.80;;
4407;SDS011;2217;48.460;7.934;2022-08-03T16:15:49;5.82;;;0.80;;
4407;SDS011;2217;48.460;7.934;2022-08-03T16:18:17;5.85;;;0.80;;
4407;SDS011;2217;48.460;7.934;2022-08-03T16:20:45;5.85;;;0.80;;
4407;SDS011;2217;48.460;7.934;2022-08-03T16:23:13;5.85;;;0.80;;
4407;SDS011;2217;48.460;7.934;2022-08-03T16:25:40;5.82;;;0.80;;
4407;SDS011;2217;48.460;7.934;2022-08-03T16:28:08;5.85;;;0.80;;
4407;SDS011;2217;48.460;7.934;2022-08-03T16:30:35;5.82;;;0.80;;
4407;SDS011;2217;48.460;7.934;2022-08-03T16:33:02;5.85;;;0.80;;
4407;SDS011;2217;48.460;7.934;2022-08-03T16:35:31;5.82;;;0.80;;
4407;SDS011;2217;48.460;7.934;2022-08-03T16:37:59;5.82;;;0.80;;
4407;SDS011;2217;48.460;7.934;2022-08-03T16:40:27;5.82;;;0.80;;
4407;SDS011;2217;48.460;7.934;2022-08-03T16:42:54;5.85;;;0.80;;
4407;SDS011;2217;48.460;7.934;2022-08-03T16:45:21;5.75;;;0.80;;
4407;SDS011;2217;48.460;7.934;2022-08-03T16:47:48;5.80;;;0.80;;
4407;SDS011;2217;48.460;7.934;2022-08-03T16:50:15;5.80;;;0.80;;
4407;SDS011;2217;48.460;7.934;2022-08-03T16:52:44;5.78;;;0.80;;
4407;SDS011;2217;48.460;7.934;2022-08-03T16:55:11;5.75;;;0.80;;
4407;SDS011;2217;48.460;7.934;2022-08-03T16:57:39;5.75;;;0.80;;
4407;SDS011;2217;48.460;7.934;2022-08-03T17:00:07;5.70;;;0.80;;
4407;SDS011;2217;48.460;7.934;2022-08-03T17:02:34;5.68;;;0.80;;
4407;SDS011;2217;48.460;7.934;2022-08-03T17:05:02;5.65;;;0.80;;
4407;SDS011;2217;48.460;7.934;2022-08-03T17:07:29;5.65;;;0.80;;
4407;SDS011;2217;48.460;7.934;2022-08-03T17:09:58;5.63;;;0.80;;
4407;SDS011;2217;48.460;7.934;2022-08-03T17:12:26;5.63;;;0.80;;
4407;SDS011;2217;48.460;7.934;2022-08-03T17:14:53;5.57;;;0.80;;
4407;SDS011;2217;48.460;7.934;2022-08-03T17:17:22;5.55;;;0.80;;
4407;SDS011;2217;48.460;7.934;2022-08-03T17:19:52;5.60;;;0.80;;
4407;SDS011;2217;48.460;7.934;2022-08-03T17:22:21;5.50;;;0.80;;
4407;SDS011;2217;48.460;7.934;2022-08-03T17:24:49;5.38;;;0.80;;
4407;SDS011;2217;48.460;7.934;2022-08-03T17:27:19;5.40;;;0.80;;
4407;SDS011;2217;48.460;7.934;2022-08-03T17:29:47;5.38;;;0.80;;
4407;SDS011;2217;48.460;7.934;2022-08-03T17:32:15;5.35;;;0.80;;
4407;SDS011;2217;48.460;7.934;2022-08-03T17:34:42;5.38;;;0.80;;
4407;SDS011;2217;48.460;7.934;2022-08-03T17:37:10;5.30;;;0.80;;
4407;SDS011;2217;48.460;7.934;2022-08-03T17:39:38;5.28;;;0.80;;
4407;SDS011;2217;48.460;7.934;2022-08-03T17:42:06;5.25;;;0.80;;
4407;SDS011;2217;48.460;7.934;2022-08-03T17:44:35;5.28;;;0.80;;
4407;SDS011;2217;48.460;7.934;2022-08-03T17:47:02;5.20;;;0.80;;
4407;SDS011;2217;48.460;7.934;2022-08-03T17:49:29;5.18;;;0.80;;
4407;SDS011;2217;48.460;7.934;2022-08-03T17:51:57;5.15;;;0.80;;
4407;SDS011;2217;48.460;7.934;2022-08-03T17:54:28;5.18;;;0.80;;
4407;SDS011;2217;48.460;7.934;2022-08-03T17:57:00;5.15;;;0.80;;
4407;SDS011;2217;48.460;7.934;2022-08-03T17:59:33;5.10;;;0.80;;